createdAt,value
2022-09-11T00:01:16.502Z,10.15
2022-09-11T00:03:44.865Z,11.70
2022-09-11T00:06:29.195Z,8.85
2022-09-11T00:09:00.311Z,8.65
2022-09-11T00:11:29.059Z,9.85
2022-09-11T00:13:57.121Z,9.35
2022-09-11T00:16:27.123Z,8.95
2022-09-11T00:18:55.664Z,9.18
2022-09-11T00:21:23.254Z,9.57
2022-09-11T00:23:50.906Z,14.38
2022-09-11T00:26:18.893Z,8.70
2022-09-11T00:28:46.938Z,8.88
2022-09-11T00:31:16.353Z,8.73
2022-09-11T00:33:44.700Z,10.63
2022-09-11T00:36:16.126Z,9.00
2022-09-11T00:38:43.763Z,9.40
2022-09-11T00:41:14.243Z,8.98
2022-09-11T00:43:52.888Z,8.13
2022-09-11T00:46:21.012Z,9.30
2022-09-11T00:48:50.098Z,8.40
2022-09-11T00:51:23.337Z,9.82
2022-09-11T00:53:52.029Z,10.10
2022-09-11T00:56:20.179Z,9.70
2022-09-11T00:58:49.453Z,9.70
2022-09-11T01:01:17.035Z,8.63
2022-09-11T01:03:44.766Z,12.35
2022-09-11T01:06:12.473Z,8.82
2022-09-11T01:08:40.278Z,13.82
2022-09-11T01:11:14.125Z,9.48
2022-09-11T01:13:47.131Z,8.80
2022-09-11T01:16:28.424Z,8.75
2022-09-11T01:19:08.716Z,8.98
2022-09-11T01:21:39.230Z,8.52
2022-09-11T01:24:13.130Z,8.88
2022-09-11T01:26:48.140Z,10.40
2022-09-11T01:29:16.113Z,8.60
2022-09-11T01:32:00.229Z,9.00
2022-09-11T01:34:36.139Z,8.80
2022-09-11T01:37:10.610Z,9.50
2022-09-11T01:39:45.255Z,9.07
2022-09-11T01:42:14.897Z,8.52
2022-09-11T01:44:50.007Z,8.48
2022-09-11T01:47:19.245Z,10.45
2022-09-11T01:49:49.936Z,9.18
2022-09-11T01:52:20.028Z,8.77
2022-09-11T01:54:51.505Z,8.98
2022-09-11T01:57:22.857Z,8.45
2022-09-11T01:59:55.640Z,9.63
2022-09-11T02:02:27.295Z,9.20
2022-09-11T02:05:04.765Z,8.80
2022-09-11T02:07:35.878Z,9.77
2022-09-11T02:10:07.752Z,8.95
2022-09-11T02:12:40.945Z,8.65
2022-09-11T02:15:09.477Z,8.20
2022-09-11T02:17:42.878Z,9.45
2022-09-11T02:20:10.999Z,8.65
2022-09-11T02:22:38.891Z,9.38
2022-09-11T02:25:07.030Z,8.77
2022-09-11T02:27:35.634Z,9.48
2022-09-11T02:30:03.564Z,9.48
2022-09-11T02:32:33.656Z,11.18
2022-09-11T02:35:01.639Z,9.35
2022-09-11T02:37:52.511Z,8.43
2022-09-11T02:40:39.522Z,8.68
2022-09-11T02:43:10.163Z,8.93
2022-09-11T02:45:54.395Z,9.57
2022-09-11T02:48:22.543Z,9.13
2022-09-11T02:50:54.232Z,10.73
2022-09-11T02:53:33.918Z,8.85
2022-09-11T02:56:01.453Z,8.85
2022-09-11T02:58:38.403Z,9.40
2022-09-11T03:01:08.671Z,9.10
2022-09-11T03:03:45.973Z,8.73
2022-09-11T03:06:24.280Z,8.65
2022-09-11T03:08:52.392Z,8.45
2022-09-11T03:11:20.156Z,10.23
2022-09-11T03:13:50.571Z,9.52
2022-09-11T03:16:18.285Z,8.93
2022-09-11T03:18:45.848Z,9.38
2022-09-11T03:21:16.825Z,8.27
2022-09-11T03:23:44.786Z,8.18
2022-09-11T03:26:12.417Z,9.00
2022-09-11T03:28:40.114Z,9.07
2022-09-11T03:31:09.502Z,9.05
2022-09-11T03:33:37.683Z,8.23
2022-09-11T03:36:05.444Z,8.43
2022-09-11T03:38:33.131Z,8.73
2022-09-11T03:41:03.369Z,8.30
2022-09-11T03:43:33.202Z,8.77
2022-09-11T03:46:01.171Z,8.80
2022-09-11T03:48:29.280Z,8.85
2022-09-11T03:50:57.593Z,9.63
2022-09-11T03:53:25.823Z,8.65
2022-09-11T03:55:54.796Z,10.38
2022-09-11T03:58:22.736Z,9.20
2022-09-11T04:00:50.557Z,8.70
2022-09-11T04:03:18.139Z,9.30
2022-09-11T04:05:56.975Z,9.63
2022-09-11T04:08:24.651Z,9.88
2022-09-11T04:10:59.803Z,9.60
2022-09-11T04:13:34.565Z,8.82
2022-09-11T04:16:05.054Z,9.05
2022-09-11T04:18:36.639Z,10.50
2022-09-11T04:21:08.500Z,8.38
2022-09-11T04:23:36.414Z,8.90
2022-09-11T04:26:05.035Z,8.80
2022-09-11T04:28:32.790Z,9.05
2022-09-11T04:31:04.558Z,10.55
2022-09-11T04:33:33.664Z,9.98
2022-09-11T04:36:05.403Z,8.98
2022-09-11T04:38:33.865Z,14.05
2022-09-11T04:41:02.476Z,9.77
2022-09-11T04:43:33.333Z,8.57
2022-09-11T04:46:03.694Z,9.70
2022-09-11T04:48:31.938Z,9.50
2022-09-11T04:51:04.241Z,11.18
2022-09-11T04:53:32.204Z,10.27
2022-09-11T04:56:03.589Z,9.65
2022-09-11T04:58:37.635Z,8.88
2022-09-11T05:01:09.286Z,9.43
2022-09-11T05:03:37.906Z,9.65
2022-09-11T05:06:09.937Z,9.38
2022-09-11T05:08:37.736Z,8.65
2022-09-11T05:11:06.896Z,14.60
2022-09-11T05:13:36.727Z,11.35
2022-09-11T05:16:05.678Z,10.40
2022-09-11T05:18:34.866Z,10.35
2022-09-11T05:21:04.736Z,10.05
2022-09-11T05:23:33.017Z,10.45
2022-09-11T05:26:02.525Z,10.40
2022-09-11T05:28:31.646Z,12.95
2022-09-11T05:31:02.544Z,14.63
2022-09-11T05:33:30.497Z,15.63
2022-09-11T05:36:03.923Z,13.05
2022-09-11T05:38:31.789Z,11.43
2022-09-11T05:40:59.343Z,14.77
2022-09-11T05:43:27.076Z,11.60
2022-09-11T05:45:56.314Z,12.07
2022-09-11T05:48:25.569Z,11.38
2022-09-11T05:50:54.543Z,11.88
2022-09-11T05:53:22.880Z,12.13
2022-09-11T05:55:51.837Z,13.25
2022-09-11T05:58:20.028Z,13.68
2022-09-11T06:00:48.278Z,13.40
2022-09-11T06:03:17.590Z,13.27
2022-09-11T06:05:45.307Z,15.55
2022-09-11T06:08:13.108Z,20.48
2022-09-11T06:10:46.767Z,24.48
2022-09-11T06:13:18.462Z,27.08
2022-09-11T06:15:49.297Z,25.58
2022-09-11T06:18:17.129Z,24.48
2022-09-11T06:20:55.337Z,23.40
2022-09-11T06:23:23.143Z,22.40
2022-09-11T06:25:54.100Z,23.50
2022-09-11T06:28:23.178Z,17.60
2022-09-11T06:30:54.325Z,17.52
2022-09-11T06:33:22.181Z,16.77
2022-09-11T06:36:04.347Z,16.77
2022-09-11T06:38:32.575Z,14.77
2022-09-11T06:41:04.512Z,13.90
2022-09-11T06:43:35.915Z,15.50
2022-09-11T06:46:06.689Z,13.77
2022-09-11T06:48:34.479Z,14.73
2022-09-11T06:51:06.467Z,14.55
2022-09-11T06:53:34.592Z,16.08
2022-09-11T06:56:08.075Z,15.50
2022-09-11T06:58:35.680Z,15.88
2022-09-11T07:01:04.978Z,15.52
2022-09-11T07:03:34.165Z,18.23
2022-09-11T07:06:04.109Z,16.27
2022-09-11T07:08:31.602Z,29.00
2022-09-11T07:11:06.444Z,38.65
2022-09-11T07:13:37.411Z,21.38
2022-09-11T07:16:10.358Z,14.07
2022-09-11T07:18:40.803Z,11.80
2022-09-11T07:21:13.256Z,12.25
2022-09-11T07:23:43.440Z,18.17
2022-09-11T07:26:12.765Z,10.98
2022-09-11T07:28:41.084Z,8.60
2022-09-11T07:31:16.375Z,8.60
2022-09-11T07:33:48.959Z,6.40
2022-09-11T07:36:18.890Z,6.25
2022-09-11T07:38:50.501Z,8.90
2022-09-11T07:41:19.392Z,5.40
2022-09-11T07:43:52.599Z,8.80
2022-09-11T07:46:20.348Z,9.95
2022-09-11T07:48:47.930Z,6.72
2022-09-11T07:51:16.548Z,6.25
2022-09-11T07:53:48.622Z,7.38
2022-09-11T07:56:21.407Z,7.57
2022-09-11T07:58:50.152Z,6.10
2022-09-11T08:01:19.832Z,5.50
2022-09-11T08:03:49.593Z,4.47
2022-09-11T08:06:22.180Z,5.30
2022-09-11T08:08:55.522Z,5.18
2022-09-11T08:11:24.584Z,6.63
2022-09-11T08:13:53.756Z,5.55
2022-09-11T08:16:24.843Z,6.13
2022-09-11T08:18:55.267Z,7.88
2022-09-11T08:21:24.437Z,4.53
2022-09-11T08:23:52.145Z,5.93
2022-09-11T08:26:24.263Z,5.65
2022-09-11T08:28:54.875Z,3.83
2022-09-11T08:31:27.666Z,4.50
2022-09-11T08:33:57.830Z,3.97
2022-09-11T08:36:25.559Z,5.38
2022-09-11T08:38:53.832Z,6.13
2022-09-11T08:41:24.110Z,4.95
2022-09-11T08:43:54.374Z,6.65
2022-09-11T08:46:24.209Z,5.15
2022-09-11T08:48:57.955Z,7.93
2022-09-11T08:51:28.207Z,4.20
2022-09-11T08:53:57.005Z,5.63
2022-09-11T08:56:29.424Z,5.57
2022-09-11T08:59:15.566Z,5.97
2022-09-11T09:02:01.766Z,6.22
2022-09-11T09:04:32.427Z,5.18
2022-09-11T09:07:02.655Z,5.63
2022-09-11T09:09:42.325Z,5.72
2022-09-11T09:12:10.286Z,6.03
2022-09-11T09:15:00.460Z,4.55
2022-09-11T09:17:32.127Z,4.25
2022-09-11T09:20:06.067Z,6.00
2022-09-11T09:22:55.414Z,5.22
2022-09-11T09:25:25.417Z,4.00
2022-09-11T09:28:17.086Z,3.45
2022-09-11T09:30:58.044Z,4.93
2022-09-11T09:33:29.186Z,4.72
2022-09-11T09:35:57.925Z,3.67
2022-09-11T09:38:31.436Z,4.28
2022-09-11T09:41:02.011Z,8.30
2022-09-11T09:43:54.166Z,4.18
2022-09-11T09:46:37.293Z,3.45
2022-09-11T09:49:04.820Z,4.85
2022-09-11T09:51:31.962Z,4.00
2022-09-11T09:54:01.869Z,6.20
2022-09-11T09:56:31.860Z,5.20
2022-09-11T09:59:19.931Z,5.35
2022-09-11T10:01:51.898Z,2.85
2022-09-11T10:04:27.198Z,4.38
2022-09-11T10:07:10.816Z,3.97
2022-09-11T10:09:46.857Z,3.13
2022-09-11T10:12:25.723Z,2.95
2022-09-11T10:14:57.683Z,3.72
2022-09-11T10:18:56.915Z,2.78
2022-09-11T10:21:37.416Z,6.20
2022-09-11T10:24:10.698Z,5.28
2022-09-11T10:26:39.436Z,5.93
2022-09-11T10:29:27.486Z,4.10
2022-09-11T10:32:02.463Z,3.17
2022-09-11T10:34:36.741Z,4.15
2022-09-11T10:37:20.255Z,3.97
2022-09-11T10:39:48.589Z,4.63
2022-09-11T10:42:17.665Z,3.88
2022-09-11T10:44:46.877Z,5.40
2022-09-11T10:47:18.899Z,4.90
2022-09-11T10:49:47.145Z,4.07
2022-09-11T10:52:14.211Z,3.80
2022-09-11T10:55:07.667Z,4.95
2022-09-11T10:57:38.953Z,3.90
2022-09-11T11:00:22.439Z,3.65
2022-09-11T11:02:56.147Z,3.88
2022-09-11T11:05:27.930Z,3.67
2022-09-11T11:08:12.173Z,4.68
2022-09-11T11:10:51.320Z,3.08
2022-09-11T11:13:24.692Z,4.63
2022-09-11T11:16:39.676Z,3.72
2022-09-11T11:19:09.466Z,3.13
2022-09-11T11:21:42.473Z,3.53
2022-09-11T11:24:34.086Z,4.32
2022-09-11T11:27:37.287Z,2.50
2022-09-11T11:30:19.453Z,3.67
2022-09-11T11:32:51.965Z,3.92
2022-09-11T11:35:36.834Z,3.83
2022-09-11T11:40:43.971Z,3.22
2022-09-11T11:43:13.889Z,2.40
2022-09-11T11:46:15.612Z,3.72
2022-09-11T11:48:51.044Z,3.67
2022-09-11T11:51:20.039Z,3.13
2022-09-11T11:54:06.696Z,5.03
2022-09-11T11:56:51.921Z,3.65
2022-09-11T11:59:44.260Z,2.92
2022-09-11T12:02:11.702Z,3.05
2022-09-11T12:05:15.927Z,4.90
2022-09-11T12:07:43.147Z,2.70
2022-09-11T12:10:29.109Z,4.10
2022-09-11T12:13:01.111Z,3.47
2022-09-11T12:15:34.349Z,4.50
2022-09-11T12:18:19.981Z,4.53
2022-09-11T12:20:47.192Z,5.03
2022-09-11T12:23:32.712Z,4.40
2022-09-11T12:26:23.886Z,3.00
2022-09-11T12:29:14.369Z,5.07
2022-09-11T12:31:50.589Z,3.65
2022-09-11T12:34:27.316Z,3.40
2022-09-11T12:37:03.504Z,3.47
2022-09-11T12:39:36.000Z,4.22
2022-09-11T12:42:25.553Z,5.47
2022-09-11T12:44:52.609Z,3.30
2022-09-11T12:47:27.577Z,3.40
2022-09-11T12:50:04.667Z,3.60
2022-09-11T12:52:40.462Z,3.90
2022-09-11T12:55:33.269Z,3.30
2022-09-11T12:58:21.391Z,3.17
2022-09-11T13:01:08.864Z,3.50
2022-09-11T13:03:38.418Z,3.70
2022-09-11T13:06:09.551Z,5.05
2022-09-11T13:08:47.474Z,2.55
2022-09-11T13:11:37.644Z,3.90
2022-09-11T13:14:29.387Z,2.85
2022-09-11T13:17:00.303Z,7.40
2022-09-11T13:19:37.679Z,3.28
2022-09-11T13:22:28.661Z,2.50
2022-09-11T13:25:16.685Z,2.85
2022-09-11T13:27:55.338Z,3.22
2022-09-11T13:30:24.487Z,3.47
2022-09-11T13:33:01.215Z,3.85
2022-09-11T13:35:29.987Z,3.45
2022-09-11T13:38:11.926Z,3.03
2022-09-11T13:40:49.775Z,2.88
2022-09-11T13:43:21.852Z,2.88
2022-09-11T13:45:49.196Z,5.45
2022-09-11T13:48:22.907Z,4.03
2022-09-11T13:50:51.501Z,3.65
2022-09-11T13:53:20.090Z,3.20
2022-09-11T13:55:49.456Z,4.25
2022-09-11T13:58:25.133Z,3.83
2022-09-11T14:00:54.955Z,2.70
2022-09-11T14:03:27.986Z,3.95
2022-09-11T14:06:15.939Z,4.45
2022-09-11T14:08:49.956Z,4.55
2022-09-11T14:11:31.956Z,4.18
2022-09-11T14:14:09.119Z,2.95
2022-09-11T14:16:44.616Z,4.63
2022-09-11T14:19:19.566Z,4.00
2022-09-11T14:21:49.124Z,3.25
2022-09-11T14:24:32.798Z,5.18
2022-09-11T14:27:02.017Z,3.97
2022-09-11T14:29:31.676Z,3.92
2022-09-11T14:32:33.252Z,3.67
2022-09-11T14:35:06.783Z,3.50
2022-09-11T14:37:44.112Z,3.27
2022-09-11T14:40:16.648Z,3.00
2022-09-11T14:42:45.350Z,2.05
2022-09-11T14:45:24.403Z,3.40
2022-09-11T14:47:52.321Z,1.38
2022-09-11T14:50:20.016Z,2.28
2022-09-11T14:52:47.166Z,2.70
2022-09-11T14:55:16.553Z,2.13
2022-09-11T14:57:46.674Z,1.65
2022-09-11T15:00:15.226Z,3.15
2022-09-11T15:02:42.507Z,1.98
2022-09-11T15:05:15.925Z,2.22
2022-09-11T15:07:45.584Z,3.73
2022-09-11T15:10:13.904Z,2.58
2022-09-11T15:12:42.560Z,3.97
2022-09-11T15:15:11.274Z,3.22
2022-09-11T15:17:38.775Z,2.67
2022-09-11T15:20:09.238Z,4.75
2022-09-11T15:22:38.401Z,2.53
2022-09-11T15:25:06.297Z,2.60
2022-09-11T15:27:33.994Z,4.35
2022-09-11T15:30:01.394Z,3.97
2022-09-11T15:32:28.935Z,3.28
2022-09-11T15:34:56.137Z,2.78
2022-09-11T15:37:24.379Z,3.75
2022-09-11T15:39:51.728Z,2.40
2022-09-11T15:42:19.174Z,3.67
2022-09-11T15:44:46.593Z,5.47
2022-09-11T15:47:13.827Z,2.83
2022-09-11T15:49:44.524Z,4.03
2022-09-11T15:52:12.183Z,2.28
2022-09-11T15:54:39.509Z,2.72
2022-09-11T15:57:07.530Z,1.77
2022-09-11T15:59:34.727Z,2.88
2022-09-11T16:02:01.990Z,4.72
2022-09-11T16:04:32.362Z,2.80
2022-09-11T16:06:59.869Z,5.63
2022-09-11T16:09:29.907Z,4.05
2022-09-11T16:11:59.364Z,4.53
2022-09-11T16:14:38.463Z,5.60
2022-09-11T16:17:07.222Z,6.07
2022-09-11T16:19:35.350Z,6.03
2022-09-11T16:22:04.174Z,6.43
2022-09-11T16:24:35.580Z,6.53
2022-09-11T16:27:05.483Z,5.70
2022-09-11T16:29:59.023Z,4.95
2022-09-11T16:32:28.483Z,5.60
2022-09-11T16:34:57.265Z,7.82
2022-09-11T16:37:25.889Z,6.30
2022-09-11T16:39:53.113Z,6.82
2022-09-11T16:42:21.713Z,5.32
2022-09-11T16:44:50.116Z,5.15
2022-09-11T16:47:18.139Z,7.90
2022-09-11T16:50:05.832Z,5.03
2022-09-11T16:52:34.717Z,6.60
2022-09-11T16:55:02.427Z,4.45
2022-09-11T16:57:30.334Z,3.22
2022-09-11T16:59:57.859Z,5.18
2022-09-11T17:02:25.131Z,3.47
2022-09-11T17:04:52.794Z,4.20
2022-09-11T17:07:20.813Z,2.38
2022-09-11T17:09:48.489Z,3.90
2022-09-11T17:12:17.870Z,4.25
2022-09-11T17:14:45.348Z,2.85
2022-09-11T17:17:12.461Z,4.57
2022-09-11T17:19:39.686Z,3.90
2022-09-11T17:22:08.541Z,6.38
2022-09-11T17:24:35.891Z,3.47
2022-09-11T17:27:03.006Z,4.07
2022-09-11T17:29:30.257Z,6.10
2022-09-11T17:32:16.701Z,4.82
2022-09-11T17:34:44.203Z,5.00
2022-09-11T17:37:11.250Z,5.95
2022-09-11T17:39:38.565Z,6.47
2022-09-11T17:42:11.089Z,6.28
2022-09-11T17:44:41.490Z,5.53
2022-09-11T17:47:09.003Z,8.15
2022-09-11T17:49:36.090Z,7.13
2022-09-11T17:52:03.343Z,10.85
2022-09-11T17:54:30.524Z,11.25
2022-09-11T17:56:58.580Z,9.25
2022-09-11T17:59:25.771Z,8.63
2022-09-11T18:01:53.374Z,8.38
2022-09-11T18:04:21.552Z,9.00
2022-09-11T18:06:48.672Z,9.40
2022-09-11T18:09:17.928Z,9.38
2022-09-11T18:11:47.462Z,10.77
2022-09-11T18:14:16.398Z,10.82
2022-09-11T18:16:45.256Z,10.50
2022-09-11T18:19:55.204Z,11.80
2022-09-11T18:22:35.791Z,9.00
2022-09-11T18:25:02.991Z,6.80
2022-09-11T18:27:30.092Z,6.63
2022-09-11T18:29:57.206Z,7.13
2022-09-11T18:32:24.415Z,6.32
2022-09-11T18:34:51.540Z,9.02
2022-09-11T18:37:18.584Z,5.60
2022-09-11T18:39:46.967Z,7.68
2022-09-11T18:42:14.090Z,5.60
2022-09-11T18:44:41.429Z,6.22
2022-09-11T18:47:08.733Z,6.75
2022-09-11T18:49:35.864Z,6.65
2022-09-11T18:52:03.330Z,6.90
2022-09-11T18:54:31.668Z,7.45
2022-09-11T18:57:00.217Z,8.20
2022-09-11T18:59:27.761Z,7.25
2022-09-11T19:01:55.290Z,7.90
2022-09-11T19:04:23.358Z,8.10
2022-09-11T19:06:50.608Z,8.77
2022-09-11T19:09:21.084Z,6.65
2022-09-11T19:11:48.442Z,7.68
2022-09-11T19:14:15.512Z,7.22
2022-09-11T19:16:42.903Z,8.02
2022-09-11T19:19:10.747Z,8.73
2022-09-11T19:21:38.455Z,7.93
2022-09-11T19:24:06.947Z,7.55
2022-09-11T19:26:38.303Z,7.97
2022-09-11T19:29:08.841Z,7.47
2022-09-11T19:31:36.846Z,9.05
2022-09-11T19:34:04.056Z,9.07
2022-09-11T19:36:36.047Z,11.23
2022-09-11T19:39:05.336Z,8.90
2022-09-11T19:41:35.454Z,8.85
2022-09-11T19:44:03.700Z,8.57
2022-09-11T19:46:33.302Z,9.18
2022-09-11T19:49:03.171Z,11.85
2022-09-11T19:51:35.187Z,10.18
2022-09-11T19:54:02.944Z,6.38
2022-09-11T19:56:31.566Z,10.52
2022-09-11T19:59:00.266Z,10.95
2022-09-11T20:01:29.859Z,7.05
2022-09-11T20:04:00.394Z,8.07
2022-09-11T20:06:33.350Z,7.07
2022-09-11T20:09:29.431Z,7.53
2022-09-11T20:11:49.642Z,6.32
2022-09-11T20:14:17.109Z,5.53
2022-09-11T20:16:44.240Z,5.10
2022-09-11T20:19:11.621Z,5.70
2022-09-11T20:21:39.074Z,5.88
2022-09-11T20:24:07.357Z,6.90
2022-09-11T20:26:35.080Z,7.40
2022-09-11T20:29:16.367Z,7.78
2022-09-11T20:31:48.857Z,8.32
2022-09-11T20:34:17.495Z,6.63
2022-09-11T20:36:44.978Z,6.72
2022-09-11T20:39:13.750Z,7.45
2022-09-11T20:41:41.176Z,8.15
2022-09-11T20:44:08.472Z,10.25
2022-09-11T20:46:35.470Z,12.15
2022-09-11T20:49:03.161Z,9.93
2022-09-11T20:51:30.968Z,13.70
2022-09-11T20:53:57.976Z,13.80
2022-09-11T20:56:25.006Z,13.00
2022-09-11T20:58:52.719Z,10.52
2022-09-11T21:01:22.632Z,11.07
2022-09-11T21:03:52.341Z,10.00
2022-09-11T21:06:25.369Z,10.85
2022-09-11T21:08:57.399Z,8.57
2022-09-11T21:11:25.277Z,7.80
2022-09-11T21:13:52.246Z,6.47
2022-09-11T21:16:20.137Z,5.30
2022-09-11T21:18:51.767Z,5.97
2022-09-11T21:21:20.324Z,6.40
2022-09-11T21:23:47.542Z,4.85
2022-09-11T21:26:16.713Z,4.60
2022-09-11T21:28:44.293Z,5.10
2022-09-11T21:31:12.018Z,5.60
2022-09-11T21:33:39.308Z,6.30
2022-09-11T21:36:07.103Z,4.88
2022-09-11T21:38:34.476Z,5.20
2022-09-11T21:41:05.556Z,5.22
2022-09-11T21:43:32.486Z,5.78
2022-09-11T21:45:59.351Z,5.57
2022-09-11T21:48:26.300Z,5.57
2022-09-11T21:50:53.475Z,8.10
2022-09-11T21:53:20.708Z,5.15
2022-09-11T21:55:50.956Z,5.35
2022-09-11T21:58:20.790Z,5.93
2022-09-11T22:00:48.861Z,4.43
2022-09-11T22:03:18.433Z,5.57
2022-09-11T22:05:49.189Z,6.78
2022-09-11T22:08:18.448Z,6.82
2022-09-11T22:10:50.579Z,4.72
2022-09-11T22:13:19.062Z,5.47
2022-09-11T22:15:50.335Z,4.35
2022-09-11T22:18:18.224Z,5.15
2022-09-11T22:20:45.609Z,5.07
2022-09-11T22:23:18.185Z,5.68
2022-09-11T22:25:45.699Z,5.00
2022-09-11T22:28:13.031Z,5.03
2022-09-11T22:30:43.918Z,6.70
2022-09-11T22:33:11.208Z,6.55
2022-09-11T22:35:38.117Z,4.95
2022-09-11T22:38:04.994Z,4.70
2022-09-11T22:40:31.853Z,5.55
2022-09-11T22:42:58.865Z,6.40
2022-09-11T22:45:25.867Z,7.22
2022-09-11T22:47:52.796Z,7.68
2022-09-11T22:50:19.677Z,7.95
2022-09-11T22:52:46.555Z,6.50
2022-09-11T22:55:13.557Z,7.15
2022-09-11T22:57:40.421Z,6.75
2022-09-11T23:00:10.047Z,8.10
2022-09-11T23:02:37.696Z,8.85
2022-09-11T23:05:25.413Z,7.00
2022-09-11T23:07:53.717Z,7.93
2022-09-11T23:10:23.650Z,8.35
2022-09-11T23:12:54.708Z,9.55
2022-09-11T23:15:22.198Z,8.43
2022-09-11T23:17:49.091Z,8.98
2022-09-11T23:20:16.253Z,9.85
2022-09-11T23:22:43.068Z,9.90
2022-09-11T23:25:11.172Z,10.35
2022-09-11T23:27:38.272Z,11.35
2022-09-11T23:30:05.567Z,12.73
2022-09-11T23:32:32.404Z,12.00
2022-09-11T23:34:59.291Z,11.93
2022-09-11T23:37:26.084Z,12.80
2022-09-11T23:39:53.009Z,12.57
2022-09-11T23:42:20.326Z,14.73
2022-09-11T23:44:47.159Z,12.93
2022-09-11T23:47:14.018Z,12.48
2022-09-11T23:49:41.138Z,17.90
2022-09-11T23:52:07.930Z,14.85
2022-09-11T23:54:34.837Z,11.50
2022-09-11T23:57:01.791Z,12.98
2022-09-11T23:59:28.582Z,13.95
